Accueil
METAR-TAF:

METAR-TAF

Aéroports :

Laupheim, Allemagne

latitude: 48-13N, longitude: 009-55E, altitude: 538 m

Observation

Le bulletin a été fait il y a 18 minutes, à 19:20 UTC
Vent 2 kt de nord
Température 17°C
Humidité 59%
Pression 1023 hPa
Visibilité 10 km ou plus
Nuages fragmentés à une hauteur de 9000 ft

METAR: ETHL 241920Z 35002KT 9999 BKN090 17/09 Q1023 BLU

Heure: 21:38 (19:38 UTC)

Prévision

Le bulletin a été fait il y a 5 heures et 0 minutes, à 14:38 UTC
Prévision valable du 24 à 14 UTC au 24 à 23 UTC
Vent 5 kt de nord-ouest
Visibilité: 1500 m
Quelques nuages à une hauteur de 5000 ft
Nuages fragmentés à une hauteur de 10000 ft

TAF: ETHL 241438Z 2414/2423 31005KT 9999 NSW FEW050 BKN100 CANCEL 1500

Observations et prévisions météorologiques de plus de 4000 aéroports (messages METAR et TAF).

Les stations disponibles sont représentées par des disques jaunes et rouges sur la carte.

Passer la souris dessus pour voir le nom de la station.

Cliquer dessus pour voir les observations et prévisions météorologiques.

Pour changer de carte: cliquez sur les boutons verts avec une croix noire pour zoomer, sur le bouton vert avec un tiret pour effectuer un zoom arrière, ou sur les flèches vertes pour les cartes adjacentes.


METAR-TAF: